sensor_id;sensor_type;location;lat;lon;timestamp;pressure;altitude;pressure_sealevel;temperature;humidity
6899;BME280;3488;42.616;23.350;2023-03-22T00:01:25;62861.13;;;8.37;100.00
6899;BME280;3488;42.616;23.350;2023-03-22T00:03:56;62867.31;;;8.43;100.00
6899;BME280;3488;42.616;23.350;2023-03-22T00:06:24;62869.28;;;8.40;100.00
6899;BME280;3488;42.616;23.350;2023-03-22T00:08:52;62861.63;;;8.37;100.00
6899;BME280;3488;42.616;23.350;2023-03-22T00:11:21;62844.69;;;8.26;100.00
6899;BME280;3488;42.616;23.350;2023-03-22T00:13:48;62857.53;;;8.36;100.00
6899;BME280;3488;42.616;23.350;2023-03-22T00:16:17;62874.50;;;8.47;100.00
6899;BME280;3488;42.616;23.350;2023-03-22T00:18:44;62874.09;;;8.54;100.00
6899;BME280;3488;42.616;23.350;2023-03-22T00:21:12;62881.72;;;8.54;100.00
6899;BME280;3488;42.616;23.350;2023-03-22T00:23:42;62879.75;;;8.57;100.00
6899;BME280;3488;42.616;23.350;2023-03-22T00:26:10;62881.31;;;8.59;100.00
6899;BME280;3488;42.616;23.350;2023-03-22T00:28:37;62881.81;;;8.59;100.00
6899;BME280;3488;42.616;23.350;2023-03-22T00:31:05;62883.31;;;8.58;100.00
6899;BME280;3488;42.616;23.350;2023-03-22T00:33:33;62881.78;;;8.57;100.00
6899;BME280;3488;42.616;23.350;2023-03-22T00:36:01;62891.03;;;8.63;100.00
6899;BME280;3488;42.616;23.350;2023-03-22T00:38:28;62883.84;;;8.59;100.00
6899;BME280;3488;42.616;23.350;2023-03-22T00:41:07;62879.69;;;8.55;100.00
6899;BME280;3488;42.616;23.350;2023-03-22T00:43:34;62879.19;;;8.54;100.00
6899;BME280;3488;42.616;23.350;2023-03-22T00:46:01;62873.47;;;8.46;100.00
6899;BME280;3488;42.616;23.350;2023-03-22T00:48:28;62873.50;;;8.49;100.00
6899;BME280;3488;42.616;23.350;2023-03-22T00:50:56;62866.84;;;8.45;100.00
6899;BME280;3488;42.616;23.350;2023-03-22T00:53:23;62875.59;;;8.51;100.00
6899;BME280;3488;42.616;23.350;2023-03-22T00:55:50;62878.16;;;8.53;100.00
6899;BME280;3488;42.616;23.350;2023-03-22T00:58:19;62855.44;;;8.31;100.00
6899;BME280;3488;42.616;23.350;2023-03-22T01:00:46;62860.03;;;8.33;100.00
6899;BME280;3488;42.616;23.350;2023-03-22T01:03:13;62860.66;;;8.39;100.00
6899;BME280;3488;42.616;23.350;2023-03-22T01:05:43;62868.34;;;8.44;100.00
6899;BME280;3488;42.616;23.350;2023-03-22T01:08:11;62871.91;;;8.45;100.00
6899;BME280;3488;42.616;23.350;2023-03-22T01:10:40;62870.97;;;8.49;100.00
6899;BME280;3488;42.616;23.350;2023-03-22T01:13:08;62868.84;;;8.44;100.00
6899;BME280;3488;42.616;23.350;2023-03-22T01:15:36;62852.84;;;8.29;100.00
6899;BME280;3488;42.616;23.350;2023-03-22T01:18:04;62838.31;;;8.12;100.00
6899;BME280;3488;42.616;23.350;2023-03-22T01:20:32;62822.41;;;8.01;100.00
6899;BME280;3488;42.616;23.350;2023-03-22T01:22:59;62829.50;;;8.01;100.00
6899;BME280;3488;42.616;23.350;2023-03-22T01:25:26;62818.75;;;7.95;100.00
6899;BME280;3488;42.616;23.350;2023-03-22T01:27:53;62814.16;;;7.93;100.00
6899;BME280;3488;42.616;23.350;2023-03-22T01:30:20;62812.47;;;7.84;100.00
6899;BME280;3488;42.616;23.350;2023-03-22T01:32:48;62802.25;;;7.82;100.00
6899;BME280;3488;42.616;23.350;2023-03-22T01:35:15;62813.03;;;7.87;100.00
6899;BME280;3488;42.616;23.350;2023-03-22T01:37:42;62806.84;;;7.81;100.00
6899;BME280;3488;42.616;23.350;2023-03-22T01:40:10;62790.41;;;7.70;100.00
6899;BME280;3488;42.616;23.350;2023-03-22T01:42:38;62789.41;;;7.72;100.00
6899;BME280;3488;42.616;23.350;2023-03-22T01:45:33;62795.53;;;7.73;100.00
6899;BME280;3488;42.616;23.350;2023-03-22T01:48:05;62789.38;;;7.69;100.00
6899;BME280;3488;42.616;23.350;2023-03-22T01:50:34;62793.91;;;7.69;100.00
6899;BME280;3488;42.616;23.350;2023-03-22T01:53:04;62796.50;;;7.71;100.00
6899;BME280;3488;42.616;23.350;2023-03-22T01:55:33;62794.47;;;7.72;100.00
6899;BME280;3488;42.616;23.350;2023-03-22T01:58:02;62801.66;;;7.76;100.00
6899;BME280;3488;42.616;23.350;2023-03-22T02:00:29;62796.03;;;7.73;100.00
6899;BME280;3488;42.616;23.350;2023-03-22T02:02:57;62787.31;;;7.67;100.00
6899;BME280;3488;42.616;23.350;2023-03-22T02:05:25;62789.28;;;7.64;100.00
6899;BME280;3488;42.616;23.350;2023-03-22T02:07:53;62787.72;;;7.63;100.00
6899;BME280;3488;42.616;23.350;2023-03-22T02:10:22;62784.63;;;7.60;100.00
6899;BME280;3488;42.616;23.350;2023-03-22T02:15:40;62767.59;;;7.43;100.00
6899;BME280;3488;42.616;23.350;2023-03-22T02:18:27;62772.25;;;7.48;100.00
6899;BME280;3488;42.616;23.350;2023-03-22T02:24:12;62766.19;;;7.49;100.00
6899;BME280;3488;42.616;23.350;2023-03-22T02:27:17;62774.31;;;7.50;100.00
6899;BME280;3488;42.616;23.350;2023-03-22T02:29:49;62774.88;;;7.53;100.00
6899;BME280;3488;42.616;23.350;2023-03-22T02:35:48;62768.16;;;7.46;100.00
6899;BME280;3488;42.616;23.350;2023-03-22T02:41:40;62770.16;;;7.46;100.00
6899;BME280;3488;42.616;23.350;2023-03-22T02:44:13;62772.81;;;7.51;100.00
6899;BME280;3488;42.616;23.350;2023-03-22T02:46:43;62780.50;;;7.56;100.00
6899;BME280;3488;42.616;23.350;2023-03-22T02:49:18;62777.47;;;7.55;100.00
6899;BME280;3488;42.616;23.350;2023-03-22T02:51:51;62771.25;;;7.49;100.00
6899;BME280;3488;42.616;23.350;2023-03-22T02:54:24;62762.03;;;7.43;100.00
6899;BME280;3488;42.616;23.350;2023-03-22T02:56:58;62768.16;;;7.46;100.00
6899;BME280;3488;42.616;23.350;2023-03-22T02:59:30;62762.03;;;7.43;100.00
6899;BME280;3488;42.616;23.350;2023-03-22T03:02:02;62763.06;;;7.44;100.00
6899;BME280;3488;42.616;23.350;2023-03-22T03:04:32;62755.88;;;7.39;100.00
6899;BME280;3488;42.616;23.350;2023-03-22T03:07:03;62760.41;;;7.39;100.00
6899;BME280;3488;42.616;23.350;2023-03-22T03:09:32;62755.34;;;7.39;100.00
6899;BME280;3488;42.616;23.350;2023-03-22T03:12:00;62761.50;;;7.42;100.00
6899;BME280;3488;42.616;23.350;2023-03-22T03:14:28;62766.09;;;7.44;100.00
6899;BME280;3488;42.616;23.350;2023-03-22T03:17:05;62764.56;;;7.43;100.00
6899;BME280;3488;42.616;23.350;2023-03-22T03:19:42;62768.69;;;7.47;100.00
6899;BME280;3488;42.616;23.350;2023-03-22T03:22:24;62764.56;;;7.43;100.00
6899;BME280;3488;42.616;23.350;2023-03-22T03:25:01;62755.25;;;7.34;100.00
6899;BME280;3488;42.616;23.350;2023-03-22T03:27:36;62750.16;;;7.31;100.00
6899;BME280;3488;42.616;23.350;2023-03-22T03:30:09;62759.44;;;7.40;100.00
6899;BME280;3488;42.616;23.350;2023-03-22T03:32:41;62757.38;;;7.38;100.00
6899;BME280;3488;42.616;23.350;2023-03-22T03:35:14;62757.38;;;7.38;100.00
6899;BME280;3488;42.616;23.350;2023-03-22T03:37:49;62754.78;;;7.36;100.00
6899;BME280;3488;42.616;23.350;2023-03-22T03:40:20;62760.41;;;7.39;100.00
6899;BME280;3488;42.616;23.350;2023-03-22T03:42:52;62752.69;;;7.31;100.00
6899;BME280;3488;42.616;23.350;2023-03-22T03:45:19;62752.16;;;7.31;100.00
6899;BME280;3488;42.616;23.350;2023-03-22T03:47:48;62752.22;;;7.33;100.00
6899;BME280;3488;42.616;23.350;2023-03-22T03:50:20;62748.59;;;7.30;100.00
6899;BME280;3488;42.616;23.350;2023-03-22T03:52:47;62747.06;;;7.28;100.00
6899;BME280;3488;42.616;23.350;2023-03-22T03:55:14;62745.56;;;7.29;100.00
6899;BME280;3488;42.616;23.350;2023-03-22T03:57:41;62748.09;;;7.29;100.00
6899;BME280;3488;42.616;23.350;2023-03-22T04:00:11;62754.19;;;7.30;100.00
6899;BME280;3488;42.616;23.350;2023-03-22T04:02:39;62749.06;;;7.28;100.00
6899;BME280;3488;42.616;23.350;2023-03-22T04:05:07;62751.13;;;7.30;100.00
6899;BME280;3488;42.616;23.350;2023-03-22T04:07:34;62748.09;;;7.29;100.00
6899;BME280;3488;42.616;23.350;2023-03-22T04:10:01;62758.31;;;7.34;100.00
6899;BME280;3488;42.616;23.350;2023-03-22T04:12:28;62749.63;;;7.31;100.00
6899;BME280;3488;42.616;23.350;2023-03-22T04:14:55;62743.94;;;7.25;100.00
6899;BME280;3488;42.616;23.350;2023-03-22T04:17:24;62749.13;;;7.30;100.00
6899;BME280;3488;42.616;23.350;2023-03-22T04:19:53;62749.03;;;7.25;100.00
6899;BME280;3488;42.616;23.350;2023-03-22T04:22:22;62743.41;;;7.22;100.00
6899;BME280;3488;42.616;23.350;2023-03-22T04:24:49;62740.31;;;7.19;100.00
6899;BME280;3488;42.616;23.350;2023-03-22T04:27:16;62739.25;;;7.18;100.00
6899;BME280;3488;42.616;23.350;2023-03-22T04:29:44;62742.84;;;7.19;100.00
6899;BME280;3488;42.616;23.350;2023-03-22T04:32:13;62739.78;;;7.19;100.00
6899;BME280;3488;42.616;23.350;2023-03-22T04:34:42;62741.38;;;7.23;100.00
6899;BME280;3488;42.616;23.350;2023-03-22T04:37:10;62741.38;;;7.23;100.00
6899;BME280;3488;42.616;23.350;2023-03-22T04:39:36;62747.00;;;7.26;100.00
6899;BME280;3488;42.616;23.350;2023-03-22T04:42:04;62751.13;;;7.30;100.00
6899;BME280;3488;42.616;23.350;2023-03-22T04:44:30;62752.69;;;7.31;100.00
6899;BME280;3488;42.616;23.350;2023-03-22T04:46:57;62759.34;;;7.35;100.00
6899;BME280;3488;42.616;23.350;2023-03-22T04:49:24;62762.44;;;7.38;100.00
6899;BME280;3488;42.616;23.350;2023-03-22T04:51:54;62754.78;;;7.36;100.00
6899;BME280;3488;42.616;23.350;2023-03-22T04:54:21;62759.91;;;7.38;100.00
6899;BME280;3488;42.616;23.350;2023-03-22T04:56:48;62755.84;;;7.37;100.00
6899;BME280;3488;42.616;23.350;2023-03-22T04:59:16;62767.59;;;7.43;100.00
6899;BME280;3488;42.616;23.350;2023-03-22T05:01:44;62754.84;;;7.38;100.00
6899;BME280;3488;42.616;23.350;2023-03-22T05:04:12;62764.50;;;7.40;100.00
6899;BME280;3488;42.616;23.350;2023-03-22T05:06:39;62761.00;;;7.42;100.00
6899;BME280;3488;42.616;23.350;2023-03-22T05:09:07;62767.63;;;7.46;100.00
6899;BME280;3488;42.616;23.350;2023-03-22T05:11:34;62765.59;;;7.44;100.00
6899;BME280;3488;42.616;23.350;2023-03-22T05:14:02;62773.78;;;7.49;100.00
6899;BME280;3488;42.616;23.350;2023-03-22T05:16:29;62772.81;;;7.51;100.00
6899;BME280;3488;42.616;23.350;2023-03-22T05:18:56;62771.25;;;7.49;100.00
6899;BME280;3488;42.616;23.350;2023-03-22T05:21:24;62771.31;;;7.52;100.00
6899;BME280;3488;42.616;23.350;2023-03-22T05:23:54;62784.16;;;7.62;100.00
6899;BME280;3488;42.616;23.350;2023-03-22T05:26:24;62784.16;;;7.62;100.00
6899;BME280;3488;42.616;23.350;2023-03-22T05:28:51;62777.00;;;7.57;100.00
6899;BME280;3488;42.616;23.350;2023-03-22T05:31:20;62781.56;;;7.59;100.00
6899;BME280;3488;42.616;23.350;2023-03-22T05:33:47;62779.63;;;7.62;100.00
6899;BME280;3488;42.616;23.350;2023-03-22T05:36:16;62788.34;;;7.68;100.00
6899;BME280;3488;42.616;23.350;2023-03-22T05:38:43;62792.38;;;7.67;100.00
6899;BME280;3488;42.616;23.350;2023-03-22T05:41:11;62794.91;;;7.67;100.00
6899;BME280;3488;42.616;23.350;2023-03-22T05:43:39;62792.47;;;7.72;100.00
6899;BME280;3488;42.616;23.350;2023-03-22T05:46:07;62798.63;;;7.76;100.00
6899;BME280;3488;42.616;23.350;2023-03-22T05:48:34;62797.06;;;7.74;100.00
6899;BME280;3488;42.616;23.350;2023-03-22T05:51:04;62791.94;;;7.72;100.00
6899;BME280;3488;42.616;23.350;2023-03-22T05:53:31;62801.66;;;7.76;100.00
6899;BME280;3488;42.616;23.350;2023-03-22T05:55:58;62804.28;;;7.81;100.00
6899;BME280;3488;42.616;23.350;2023-03-22T05:58:26;62809.94;;;7.84;100.00
6899;BME280;3488;42.616;23.350;2023-03-22T06:00:56;62803.88;;;7.86;100.00
6899;BME280;3488;42.616;23.350;2023-03-22T06:03:25;62813.53;;;7.88;100.00
6899;BME280;3488;42.616;23.350;2023-03-22T06:05:52;62799.72;;;7.82;100.00
6899;BME280;3488;42.616;23.350;2023-03-22T06:08:20;62811.47;;;7.86;100.00
6899;BME280;3488;42.616;23.350;2023-03-22T06:10:48;62816.69;;;7.93;100.00
6899;BME280;3488;42.616;23.350;2023-03-22T06:13:16;62829.03;;;8.03;100.00
6899;BME280;3488;42.616;23.350;2023-03-22T06:15:44;62828.56;;;8.05;100.00
6899;BME280;3488;42.616;23.350;2023-03-22T06:18:12;62826.53;;;8.05;100.00
6899;BME280;3488;42.616;23.350;2023-03-22T06:20:39;62826.03;;;8.05;100.00
6899;BME280;3488;42.616;23.350;2023-03-22T06:23:06;62830.56;;;8.04;100.00
6899;BME280;3488;42.616;23.350;2023-03-22T06:25:33;62825.50;;;8.04;100.00
6899;BME280;3488;42.616;23.350;2023-03-22T06:28:01;62824.94;;;8.01;100.00
6899;BME280;3488;42.616;23.350;2023-03-22T06:30:27;62818.78;;;7.98;100.00
6899;BME280;3488;42.616;23.350;2023-03-22T06:32:54;62823.94;;;8.03;100.00
6899;BME280;3488;42.616;23.350;2023-03-22T06:35:26;62826.06;;;8.07;100.00
6899;BME280;3488;42.616;23.350;2023-03-22T06:37:53;62835.72;;;8.09;100.00
6899;BME280;3488;42.616;23.350;2023-03-22T06:40:20;62831.72;;;8.10;100.00
6899;BME280;3488;42.616;23.350;2023-03-22T06:42:47;62839.97;;;8.18;100.00
6899;BME280;3488;42.616;23.350;2023-03-22T06:45:13;62844.03;;;8.20;100.00
6899;BME280;3488;42.616;23.350;2023-03-22T06:47:41;62851.75;;;8.25;100.00
6899;BME280;3488;42.616;23.350;2023-03-22T06:50:09;62853.91;;;8.32;100.00
6899;BME280;3488;42.616;23.350;2023-03-22T06:52:37;62865.25;;;8.41;100.00
6899;BME280;3488;42.616;23.350;2023-03-22T06:55:05;62874.00;;;8.49;100.00
6899;BME280;3488;42.616;23.350;2023-03-22T06:57:32;62875.59;;;8.51;100.00
6899;BME280;3488;42.616;23.350;2023-03-22T06:59:59;62881.25;;;8.56;100.00
6899;BME280;3488;42.616;23.350;2023-03-22T07:02:26;62884.88;;;8.60;100.00
6899;BME280;3488;42.616;23.350;2023-03-22T07:04:53;62863.69;;;8.39;100.00
6899;BME280;3488;42.616;23.350;2023-03-22T07:07:19;62840.44;;;8.16;100.00
6899;BME280;3488;42.616;23.350;2023-03-22T07:09:48;62833.19;;;8.09;100.00
6899;BME280;3488;42.616;23.350;2023-03-22T07:12:15;62849.16;;;8.23;100.00
6899;BME280;3488;42.616;23.350;2023-03-22T07:14:43;62853.88;;;8.30;100.00
6899;BME280;3488;42.616;23.350;2023-03-22T07:17:09;62857.50;;;8.33;100.00
6899;BME280;3488;42.616;23.350;2023-03-22T07:19:38;62852.34;;;8.28;100.00
6899;BME280;3488;42.616;23.350;2023-03-22T07:22:07;62855.38;;;8.29;100.00
6899;BME280;3488;42.616;23.350;2023-03-22T07:24:34;62861.59;;;8.35;100.00
6899;BME280;3488;42.616;23.350;2023-03-22T07:27:03;62860.13;;;8.38;100.00
6899;BME280;3488;42.616;23.350;2023-03-22T07:29:30;62868.28;;;8.41;100.00
6899;BME280;3488;42.616;23.350;2023-03-22T07:31:57;62864.81;;;8.45;100.00
6899;BME280;3488;42.616;23.350;2023-03-22T07:34:23;62877.06;;;8.50;100.00
6899;BME280;3488;42.616;23.350;2023-03-22T07:36:50;62875.53;;;8.48;100.00
6899;BME280;3488;42.616;23.350;2023-03-22T07:39:18;62881.25;;;8.56;100.00
6899;BME280;3488;42.616;23.350;2023-03-22T07:41:44;62855.47;;;8.34;100.00
6899;BME280;3488;42.616;23.350;2023-03-22T07:44:13;62847.09;;;8.20;100.00
6899;BME280;3488;42.616;23.350;2023-03-22T07:46:40;62848.25;;;8.27;100.00
6899;BME280;3488;42.616;23.350;2023-03-22T07:49:07;62862.13;;;8.38;100.00
6899;BME280;3488;42.616;23.350;2023-03-22T07:51:35;62877.63;;;8.53;100.00
6899;BME280;3488;42.616;23.350;2023-03-22T07:54:02;62890.03;;;8.65;100.00
6899;BME280;3488;42.616;23.350;2023-03-22T07:56:30;62901.41;;;8.76;100.00
6899;BME280;3488;42.616;23.350;2023-03-22T07:58:56;62901.88;;;8.74;100.00
6899;BME280;3488;42.616;23.350;2023-03-22T08:01:25;62895.16;;;8.67;100.00
6899;BME280;3488;42.616;23.350;2023-03-22T08:03:51;62881.31;;;8.59;100.00
6899;BME280;3488;42.616;23.350;2023-03-22T08:06:18;62867.34;;;8.45;100.00
6899;BME280;3488;42.616;23.350;2023-03-22T08:08:46;62876.06;;;8.49;100.00
6899;BME280;3488;42.616;23.350;2023-03-22T08:11:13;62880.25;;;8.58;100.00
6899;BME280;3488;42.616;23.350;2023-03-22T08:13:40;62898.78;;;8.71;100.00
6899;BME280;3488;42.616;23.350;2023-03-22T08:16:07;62905.06;;;8.82;100.00
6899;BME280;3488;42.616;23.350;2023-03-22T08:18:35;62911.72;;;8.86;100.00
6899;BME280;3488;42.616;23.350;2023-03-22T08:21:03;62894.69;;;8.69;100.00
6899;BME280;3488;42.616;23.350;2023-03-22T08:23:30;62899.31;;;8.71;100.00
6899;BME280;3488;42.616;23.350;2023-03-22T08:25:57;62892.16;;;8.69;100.00
6899;BME280;3488;42.616;23.350;2023-03-22T08:28:24;62895.19;;;8.70;100.00
6899;BME280;3488;42.616;23.350;2023-03-22T08:30:51;62897.25;;;8.72;100.00
6899;BME280;3488;42.616;23.350;2023-03-22T08:33:18;62897.78;;;8.72;100.00
6899;BME280;3488;42.616;23.350;2023-03-22T08:35:49;62910.66;;;8.82;100.00
6899;BME280;3488;42.616;23.350;2023-03-22T08:38:16;62907.19;;;8.86;100.00
6899;BME280;3488;42.616;23.350;2023-03-22T08:40:45;62911.22;;;8.85;100.00
6899;BME280;3488;42.616;23.350;2023-03-22T08:43:12;62912.28;;;8.89;100.00
6899;BME280;3488;42.616;23.350;2023-03-22T08:45:39;62915.34;;;8.89;100.00
6899;BME280;3488;42.616;23.350;2023-03-22T08:48:06;62919.50;;;8.93;100.00
6899;BME280;3488;42.616;23.350;2023-03-22T08:50:33;62926.69;;;8.98;100.00
6899;BME280;3488;42.616;23.350;2023-03-22T08:53:01;62927.72;;;8.99;100.00
6899;BME280;3488;42.616;23.350;2023-03-22T08:55:28;62935.44;;;9.04;100.00
6899;BME280;3488;42.616;23.350;2023-03-22T08:57:55;62933.38;;;9.04;100.00
6899;BME280;3488;42.616;23.350;2023-03-22T09:00:23;62933.38;;;9.04;100.00
6899;BME280;3488;42.616;23.350;2023-03-22T09:02:50;62935.00;;;9.08;100.00
6899;BME280;3488;42.616;23.350;2023-03-22T09:05:17;62940.63;;;9.11;100.00
6899;BME280;3488;42.616;23.350;2023-03-22T09:07:44;62940.63;;;9.11;100.00
6899;BME280;3488;42.616;23.350;2023-03-22T09:10:12;62933.44;;;9.07;100.00
6899;BME280;3488;42.616;23.350;2023-03-22T09:12:41;62935.47;;;9.06;100.00
6899;BME280;3488;42.616;23.350;2023-03-22T09:15:08;62935.97;;;9.07;100.00
6899;BME280;3488;42.616;23.350;2023-03-22T09:17:35;62945.31;;;9.18;100.00
6899;BME280;3488;42.616;23.350;2023-03-22T09:20:03;62941.72;;;9.15;100.00
6899;BME280;3488;42.616;23.350;2023-03-22T09:22:30;62926.22;;;9.00;100.00
6899;BME280;3488;42.616;23.350;2023-03-22T09:24:58;62936.44;;;9.05;100.00
6899;BME280;3488;42.616;23.350;2023-03-22T09:27:26;62911.72;;;8.86;100.00
6899;BME280;3488;42.616;23.350;2023-03-22T09:29:53;62890.56;;;8.65;100.00
6899;BME280;3488;42.616;23.350;2023-03-22T09:32:20;62899.81;;;8.72;100.00
6899;BME280;3488;42.616;23.350;2023-03-22T09:34:47;62905.56;;;8.82;100.00
6899;BME280;3488;42.616;23.350;2023-03-22T09:37:14;62908.13;;;8.82;100.00
6899;BME280;3488;42.616;23.350;2023-03-22T09:39:40;62917.97;;;8.94;100.00
6899;BME280;3488;42.616;23.350;2023-03-22T09:42:19;62932.91;;;9.06;100.00
6899;BME280;3488;42.616;23.350;2023-03-22T09:44:52;62931.44;;;9.07;100.00
6899;BME280;3488;42.616;23.350;2023-03-22T09:47:25;62935.50;;;9.09;100.00
6899;BME280;3488;42.616;23.350;2023-03-22T09:50:01;62938.13;;;9.14;100.00
6899;BME280;3488;42.616;23.350;2023-03-22T09:52:29;62945.88;;;9.21;100.00
6899;BME280;3488;42.616;23.350;2023-03-22T09:54:57;62947.91;;;9.21;100.00
6899;BME280;3488;42.616;23.350;2023-03-22T09:57:28;62955.16;;;9.28;100.00
6899;BME280;3488;42.616;23.350;2023-03-22T10:00:04;62964.94;;;9.35;100.00
6899;BME280;3488;42.616;23.350;2023-03-22T10:02:45;62964.44;;;9.37;100.00
6899;BME280;3488;42.616;23.350;2023-03-22T10:05:18;62979.41;;;9.49;100.00
6899;BME280;3488;42.616;23.350;2023-03-22T10:08:14;62991.84;;;9.64;100.00
6899;BME280;3488;42.616;23.350;2023-03-22T10:10:44;62998.50;;;9.65;100.00
6899;BME280;3488;42.616;23.350;2023-03-22T10:13:15;62991.38;;;9.66;100.00
6899;BME280;3488;42.616;23.350;2023-03-22T10:15:47;62972.69;;;9.43;100.00
6899;BME280;3488;42.616;23.350;2023-03-22T10:18:18;62955.09;;;9.25;100.00
6899;BME280;3488;42.616;23.350;2023-03-22T10:20:51;62943.84;;;9.19;100.00
6899;BME280;3488;42.616;23.350;2023-03-22T10:23:26;62947.91;;;9.21;100.00
6899;BME280;3488;42.616;23.350;2023-03-22T10:25:55;62955.63;;;9.26;100.00
6899;BME280;3488;42.616;23.350;2023-03-22T10:28:26;62963.41;;;9.36;100.00
6899;BME280;3488;42.616;23.350;2023-03-22T10:30:56;62953.59;;;9.26;100.00
6899;BME280;3488;42.616;23.350;2023-03-22T10:33:36;62945.31;;;9.18;100.00
6899;BME280;3488;42.616;23.350;2023-03-22T10:36:08;62939.13;;;9.12;100.00
6899;BME280;3488;42.616;23.350;2023-03-22T10:38:44;62940.25;;;9.18;100.00
6899;BME280;3488;42.616;23.350;2023-03-22T10:41:14;62953.09;;;9.26;100.00
6899;BME280;3488;42.616;23.350;2023-03-22T10:43:43;62950.03;;;9.25;100.00
6899;BME280;3488;42.616;23.350;2023-03-22T10:46:14;62950.47;;;9.21;100.00
6899;BME280;3488;42.616;23.350;2023-03-22T10:48:45;62943.78;;;9.17;100.00
6899;BME280;3488;42.616;23.350;2023-03-22T10:51:20;62947.44;;;9.23;100.00
6899;BME280;3488;42.616;23.350;2023-03-22T10:53:50;62960.84;;;9.33;100.00
6899;BME280;3488;42.616;23.350;2023-03-22T10:56:20;62974.28;;;9.47;100.00
6899;BME280;3488;42.616;23.350;2023-03-22T10:58:51;62963.41;;;9.36;100.00
6899;BME280;3488;42.616;23.350;2023-03-22T11:01:27;62961.88;;;9.34;100.00
6899;BME280;3488;42.616;23.350;2023-03-22T11:03:58;62959.78;;;9.30;100.00
6899;BME280;3488;42.616;23.350;2023-03-22T11:06:26;62948.47;;;9.24;100.00
6899;BME280;3488;42.616;23.350;2023-03-22T11:08:58;62959.28;;;9.32;100.00
6899;BME280;3488;42.616;23.350;2023-03-22T11:11:28;62945.88;;;9.21;100.00
6899;BME280;3488;42.616;23.350;2023-03-22T11:14:00;62955.63;;;9.26;100.00
6899;BME280;3488;42.616;23.350;2023-03-22T11:16:40;62960.41;;;9.38;100.00
6899;BME280;3488;42.616;23.350;2023-03-22T11:19:13;62975.34;;;9.50;100.00
6899;BME280;3488;42.616;23.350;2023-03-22T11:21:41;62977.44;;;9.52;100.00
6899;BME280;3488;42.616;23.350;2023-03-22T11:24:11;62976.25;;;9.44;100.00
6899;BME280;3488;42.616;23.350;2023-03-22T11:26:40;62969.13;;;9.44;100.00
6899;BME280;3488;42.616;23.350;2023-03-22T11:29:15;62949.47;;;9.22;100.00
6899;BME280;3488;42.616;23.350;2023-03-22T11:31:53;62957.22;;;9.30;100.00
6899;BME280;3488;42.616;23.350;2023-03-22T11:34:22;62952.00;;;9.22;100.00
6899;BME280;3488;42.616;23.350;2023-03-22T11:36:49;62940.16;;;9.13;100.00
6899;BME280;3488;42.616;23.350;2023-03-22T11:39:22;62925.69;;;8.99;100.00
6899;BME280;3488;42.616;23.350;2023-03-22T11:41:51;62912.72;;;8.84;100.00
6899;BME280;3488;42.616;23.350;2023-03-22T11:44:20;62904.00;;;8.78;100.00
6899;BME280;3488;42.616;23.350;2023-03-22T11:46:52;62899.84;;;8.74;100.00
6899;BME280;3488;42.616;23.350;2023-03-22T11:49:23;62902.88;;;8.72;100.00
6899;BME280;3488;42.616;23.350;2023-03-22T11:51:53;62898.81;;;8.73;100.00
6899;BME280;3488;42.616;23.350;2023-03-22T11:54:27;62918.97;;;8.93;100.00
6899;BME280;3488;42.616;23.350;2023-03-22T11:56:57;62933.47;;;9.09;100.00
6899;BME280;3488;42.616;23.350;2023-03-22T11:59:27;62928.81;;;9.02;100.00
6899;BME280;3488;42.616;23.350;2023-03-22T12:01:59;62934.47;;;9.08;100.00
6899;BME280;3488;42.616;23.350;2023-03-22T12:04:33;62947.84;;;9.16;100.00
6899;BME280;3488;42.616;23.350;2023-03-22T12:07:04;62935.00;;;9.08;100.00
6899;BME280;3488;42.616;23.350;2023-03-22T12:09:38;62935.00;;;9.08;100.00
6899;BME280;3488;42.616;23.350;2023-03-22T12:12:12;62948.94;;;9.22;100.00
6899;BME280;3488;42.616;23.350;2023-03-22T12:14:46;62951.56;;;9.27;100.00
6899;BME280;3488;42.616;23.350;2023-03-22T12:17:20;62973.25;;;9.46;100.00
6899;BME280;3488;42.616;23.350;2023-03-22T12:19:55;62998.53;;;9.68;100.00
6899;BME280;3488;42.616;23.350;2023-03-22T12:22:28;62997.00;;;9.66;100.00
6899;BME280;3488;42.616;23.350;2023-03-22T12:24:57;62985.69;;;9.60;100.00
6899;BME280;3488;42.616;23.350;2023-03-22T12:27:27;62972.75;;;9.48;100.00
6899;BME280;3488;42.616;23.350;2023-03-22T12:30:00;62992.41;;;9.67;100.00
6899;BME280;3488;42.616;23.350;2023-03-22T12:32:33;63009.97;;;9.81;100.00
6899;BME280;3488;42.616;23.350;2023-03-22T12:35:03;63002.75;;;9.77;100.00
6899;BME280;3488;42.616;23.350;2023-03-22T12:37:34;63011.50;;;9.83;100.00
6899;BME280;3488;42.616;23.350;2023-03-22T12:40:04;63048.72;;;10.16;100.00
6899;BME280;3488;42.616;23.350;2023-03-22T12:42:37;63089.69;;;10.61;100.00
6899;BME280;3488;42.616;23.350;2023-03-22T12:45:13;63119.63;;;10.85;100.00
6899;BME280;3488;42.616;23.350;2023-03-22T12:47:46;63150.75;;;11.20;100.00
6899;BME280;3488;42.616;23.350;2023-03-22T12:50:16;63181.25;;;11.45;100.00
6899;BME280;3488;42.616;23.350;2023-03-22T12:52:46;63203.09;;;11.71;100.00
6899;BME280;3488;42.616;23.350;2023-03-22T12:55:20;63226.88;;;11.92;100.00
6899;BME280;3488;42.616;23.350;2023-03-22T12:57:49;63234.16;;;12.01;100.00
6899;BME280;3488;42.616;23.350;2023-03-22T13:00:20;63225.81;;;11.88;100.00
6899;BME280;3488;42.616;23.350;2023-03-22T13:02:55;63198.91;;;11.65;100.00
6899;BME280;3488;42.616;23.350;2023-03-22T13:05:27;63147.59;;;11.15;100.00
6899;BME280;3488;42.616;23.350;2023-03-22T13:07:55;63109.78;;;10.76;100.00
6899;BME280;3488;42.616;23.350;2023-03-22T13:13:44;63125.81;;;10.89;100.00
6899;BME280;3488;42.616;23.350;2023-03-22T13:16:20;63130.53;;;10.98;100.00
6899;BME280;3488;42.616;23.350;2023-03-22T13:18:58;63093.28;;;10.62;100.00
6899;BME280;3488;42.616;23.350;2023-03-22T13:21:27;63078.31;;;10.50;100.00
6899;BME280;3488;42.616;23.350;2023-03-22T13:23:58;63069.44;;;10.39;100.00
6899;BME280;3488;42.616;23.350;2023-03-22T13:26:38;63056.53;;;10.26;100.00
6899;BME280;3488;42.616;23.350;2023-03-22T13:29:14;63039.97;;;10.10;100.00
6899;BME280;3488;42.616;23.350;2023-03-22T13:31:45;63028.09;;;10.01;100.00
6899;BME280;3488;42.616;23.350;2023-03-22T13:34:17;63022.78;;;9.89;100.00
6899;BME280;3488;42.616;23.350;2023-03-22T13:36:50;63012.50;;;9.81;100.00
6899;BME280;3488;42.616;23.350;2023-03-22T13:39:18;62994.47;;;9.69;100.00